NWS Home NWS Lubbock West Texas Mesonet Latest Conditions as of 0334 PM, Sun Aug 28, 2016

Latest   N   C   S   Daily Sum   3hrΔ   24hrΔ   Soil Data 
Site Map   24hr Precip   72hr Precip   Google Plot


Station Time of Last Temp Dew Pt. RH Wind Direction Wind Speed Wind Gust Max Wind Max Temp Min Temp Max RH Min RH Altimeter 1HR Rain Today's Rain Solar Rad
Abernathy 5ENE  03:30 PM 81 63 57% E23 13 mph 251° @ 0330 AM 85 63 97 46 30.10" 0 0 130
Aiken 3WSW  03:30 PM 84 62 49% SE34 14 mph 98° @ 0243 PM 85 65 99 45 30.10" 0 0 918
Amarillo 15NNW   03:30 PM 82 59 45% S56 23 mph 159° @ 1230 AM 85 64 98 41 30.09" 0 0.34 480
Amarillo 7SSE  03:30 PM 83 60 47% SE911 24 mph 180° @ 1228 PM 84 63 94 43 30.12" 0 0.01 973
Amarillo 9NNE  03:30 PM 87 58 38% SW69 19 mph 195° @ 0201 PM 87 65 97 38 30.08" 0 0 908
Amherst 1NE  03:30 PM 63 58 85% SE2735 48 mph 132° @ 0320 PM 83 62 97 49 30.13" 0.21 0.30 61
Anton 6SSW  03:30 PM 84 61 48% S35 23 mph 287° @ 0330 AM 86 63 98 45 30.08" 0 0.25 253
Aspermont 3NE  03:30 PM 91 67 46% SE812 19 mph 98° @ 0325 PM 92 66 98 42 30.01" 0 0.01 919
Big Lake 1WNW  03:30 PM 87 60 40% SE1115 19 mph 167° @ 1016 AM 91 67 91 38 30.03" 0 0 109
Bootleg 11WNW  03:25 PM 83 57 41% S1114 23 mph 237° @ 1055 AM 85 59 93 37 30.15" 0 0.01 846
Boys Ranch 1WSW  03:30 PM 82 60 48% SE79 19 mph 108° @ 0148 AM 82 62 98 47 30.09" 0 0.99 289
Brownfield 2S  03:30 PM 86 57 38% SE1116 22 mph 332° @ 0515 AM 86 66 93 38 30.08" 0 0 838
Canadian 6E  03:30 PM 82 68 63% SW1014 21 mph 176° @ 0211 PM 89 64 93 49 30.01" 0 0.01 216
Caprock Canyons State Park  03:30 PM 87 68 54% SE710 13 mph 76° @ 0308 PM 87 66 99 52 30.06" 0 0 855
Childress 2NNE  03:30 PM 89 65 47% SE1219 21 mph 127° @ 0325 PM 90 66 97 46 30.03" 0 0 582
Clarendon 2WSW  03:30 PM 85 65 54% SE812 14 mph 152° @ 0310 PM 85 65 95 53 30.08" 0 0 953
Claude 12SW  03:30 PM 84 61 47% S1013 15 mph 254° @ 0207 AM 84 64 96 46 30.10" 0 0 858
Clyde 2WNW  03:30 PM 74 71 90% SW45 17 mph 110° @ 0102 PM 85 70 95 60 30.06" 0.01 0.17 289
Coyanosa 2N  03:30 PM 90 62 40% SE67 17 mph 127° @ 0851 AM 92 67 94 36 30.01" 0 0 570
Dell City  03:30 PM 86 53 33% E24 34 mph 293° @ 1249 AM 87 64 91 30 30.09" 0 0 883
Denver City 7WNW  03:30 PM 85 56 38% SE1216 20 mph 130° @ 0255 PM 85 61 93 38 30.09" 0 0 661
Dimmitt 2NE  03:30 PM 82 59 46% S613 24 mph 210° @ 1250 AM 84 62 95 39 30.12" 0 0.12 857
Dora NM 2SW  03:30 PM 83 52 36% S514 30 mph 170° @ 0420 AM 83 59 98 35 30.14" 0 0.60 806
Dozier 3W  03:30 PM 89 70 53% SE1317 20 mph 118° @ 0322 PM 90 66 96 53 30.04" 0 0 898
Floydada 2NNE  03:30 PM 87 58 39% SE59 15 mph 157° @ 0240 PM 87 66 100 39 30.08" 0 0.19 880
Fluvanna 3WNW  03:30 PM 88 59 38% SE710 13 mph 175° @ 0230 PM 89 66 92 38 30.05" 0 0 233
Fort Chadbourne  03:30 PM 74 66 76% SE1821 30 mph 105° @ 0316 PM 89 68 99 50 30.06" 0 0.01 116
Fort Lancaster  03:30 PM 88 69 53% N1113 17 mph 147° @ 1136 AM 88 73 82 50 29.99" 0.01 0.07 1011
Fort McKavett  03:30 PM 84 69 61% E813 26 mph 66° @ 0243 PM 90 66 100 46 30.05" 0 0 931
Friona 2NE  03:30 PM 82 58 45% SW912 27 mph 212° @ 0120 AM 83 61 92 45 30.13" 0 0.15 343
Gail 2ESE  03:30 PM 89 63 44% SE814 14 mph 155° @ 0330 PM 89 66 96 42 30.03" 0 0 810
Goodlett 3W  03:30 PM 89 65 45% SE1521 22 mph 110° @ 0325 PM 90 67 93 45 30.01" 0 0 842
Goodnight  03:30 PM 83 65 54% SE69 14 mph 135° @ 1227 PM 84 65 100 50 30.10" 0 0 843
Graham 5SSW  03:30 PM 86 62 46% S68 16 mph 315° @ 0615 AM 86 65 93 44 30.05" 0 0.05 818
Guadalupe Mtns Natl Park  03:30 PM 72 58 62% N79 24 mph 329° @ 0208 AM 76 61 85 47 30.23" 0 0 352
Guthrie 10WSW  03:30 PM 88 65 48% E812 15 mph 88° @ 0325 PM 90 67 96 45 30.02" 0 0 260
Hart 3N  03:30 PM 81 62 55% S58 18 mph 238° @ 0100 AM 82 62 95 50 30.11" 0 0 210
Haskell 1NW  03:30 PM 86 66 55% SE1520 24 mph 119° @ 0320 PM 90 67 100 46 30.02" 0 0 688
Hereford 2NW  03:30 PM 81 58 48% SE1215 20 mph 201° @ 0405 AM 83 62 90 44 30.12" 0.01 0.10 438
Hobbs NM 5NW  03:30 PM 86 56 36% SE1013 20 mph 332° @ 0509 AM 87 63 86 33 30.12" 0 0 865
Jayton 1SSE  03:30 PM 89 67 51% E1722 22 mph 104° @ 0330 PM 90 68 96 45 30.02" 0 0.01 862
Junction 1SSW  03:30 PM 89 67 49% NE68 17 mph 63° @ 0322 PM 91 68 100 48 30.00" 0 0.02 185
Knox City 3NW  03:30 PM 87 63 45% E2126 32 mph 104° @ 0315 PM 92 68 91 38 30.02" 0 0 536
Lake Alan Henry 1NW  03:30 PM 84 62 48% SE1417 25 mph 139° @ 0327 PM 92 68 90 36 30.03" 0 0 487
Lamesa 2SE  03:30 PM 86 63 49% SE613 16 mph 338° @ 0620 AM 86 67 94 48 30.07" 0 0 811
Levelland 4S  03:30 PM 86 59 41% SE1217 21 mph 310° @ 0435 AM 86 62 90 37 30.09" 0 0.02 582
Lomax 1SSE  03:30 PM 88 65 47% E811 16 mph 140° @ 1222 AM 88 68 96 46 30.04" 0 0 682
Lubbock 3WNW TTU  03:30 PM 89 58 37% SE711 16 mph 129° @ 1205 AM 89 63 92 37 30.08" 0 0 864
McLean 1E  03:30 PM 82 65 58% SE1321 23 mph 145° @ 0255 PM 87 65 96 49 30.04" 0 0 118
Memphis 1NE  03:30 PM 87 68 55% SE1115 18 mph 128° @ 0325 PM 89 66 99 53 30.03" 0 0 167
Menard 2NW   03:30 PM 76 68 77% SE44 29 mph 319° @ 0158 PM 88 69 98 52 30.05" 0 0.15 122
Mertzon 3NNE  03:30 PM 85 66 52% S68 19 mph 116° @ 0248 PM 89 66 97 47 30.03" 0 0 1056
Morton 1ENE  03:30 PM 67 60 79% SE1929 41 mph 107° @ 0320 PM 84 61 96 42 30.14" 0 1.18 83
Muleshoe 2SSW  03:30 PM 83 54 39% S36 22 mph 253° @ 1220 AM 83 61 97 39 30.11" 0 0.85 938
Northfield 1S  03:30 PM 78 69 75% W812 16 mph 103° @ 0150 PM 89 65 100 54 30.04" 0 0 42
O'Donnell 1N  03:30 PM 87 56 36% E1016 17 mph 115° @ 0310 PM 88 67 89 36 30.07" 0 0 758
Odell 4ENE  03:30 PM 91 66 44% E911 18 mph 115° @ 0321 PM 91 68 97 43 30.02" 0 0 765
Olton 6S  03:30 PM 76 58 55% W1519 20 mph 258° @ 0320 PM 85 63 90 39 30.10" 0 0 221
Paducah 10SW  03:30 PM 90 66 46% SE48 15 mph 122° @ 0315 PM 91 66 98 46 30.03" 0 0 453
Palo Duro Canyon SP Floor  03:30 PM 89 62 41% S67 17 mph 132° @ 0318 PM 89 67 89 40 30.05" 0 0 824
Palo Duro Canyon State Park Rim  03:30 PM 86 60 43% SE914 19 mph 147° @ 0305 PM 88 64 92 41 30.10" 0 0 393
Pampa 2E  03:30 PM 81 64 57% E1621 26 mph 119° @ 0315 PM 85 63 100 36 30.09" 0 0 905
Panhandle 1SSW  03:30 PM 83 62 49% S1619 20 mph 142° @ 1229 AM 84 64 97 47 30.11" 0 0 882
Plains 3N  03:30 PM 83 57 43% S1015 24 mph 333° @ 0350 AM 86 62 94 41 30.10" 0 0.01 350
Plainview 1S  03:30 PM 85 60 44% E811 13 mph 130° @ 0320 PM 85 65 93 42 30.09" 0 0 916
Post 1NE  03:30 PM 89 62 42% E47 18 mph 299° @ 0825 AM 90 66 94 40 30.04" 0 0.50 839
Ralls 1SE  03:30 PM 86 62 45% E69 13 mph 135° @ 0120 PM 86 65 95 42 30.08" 0 0 486
Reese Center  03:30 PM 88 59 38% SE1417 21 mph 139° @ 0320 PM 88 61 93 36 30.08" 0 0 825
Roaring Springs 3N  03:30 PM 71 66 87% E1222 37 mph 8° @ 0255 PM 86 65 100 55 30.08" 0.21 0.21 126
San Angelo 7NW  03:30 PM 91 59 35% SE1522 22 mph 113° @ 0330 PM 94 68 83 32 30.01" 0 0 326
Seagraves 1SW  03:30 PM 86 61 44% SE915 20 mph 354° @ 0535 AM 86 66 95 41 30.08" 0 0 766
Seminole 2NNE  03:30 PM 87 59 40% SE1016 21 mph 138° @ 0325 PM 87 67 91 40 30.08" 0 0 931
Seymour 3NW  03:30 PM 88 65 48% SE1217 19 mph 119° @ 0205 PM 93 70 93 41 30.01" 0 0 118
Sierra Blanca 1SSE  03:30 PM 82 51 34% NE12 23 mph 291° @ 0140 AM 84 62 95 33 30.15" 0 0.29 890
Silverton 7ESE  03:30 PM 81 64 57% SE79 12 mph 281° @ 0330 AM 84 65 95 47 30.09" 0 0.01 262
Slaton 2NE  03:30 PM 87 58 37% S613 15 mph 191° @ 0315 PM 87 65 94 37 30.07" 0 0.14 826
Snyder 3E  03:30 PM 89 65 47% E1318 18 mph 84° @ 0330 PM 92 68 97 41 30.04" 0 0 339
Snyder 3SSW  03:30 PM 87 66 49% E67 11 mph 6° @ 0950 AM 90 68 96 43 30.04" 0 0 198
Spur 1W  03:30 PM 89 61 40% SE713 14 mph 134° @ 0325 PM 89 67 96 39 30.03" 0 0 924
St. Lawrence 5SW  03:30 PM 86 65 51% N1115 18 mph 32° @ 0320 PM 90 65 89 38 30.03" 0 0 274
Sterling City 4WSW  03:30 PM 90 61 38% E68 13 mph 110° @ 0158 PM 93 64 98 37 30.03" 0 0 568
Sundown 8WSW  03:30 PM 87 58 38% SE1122 22 mph 321° @ 0425 AM 87 62 95 38 30.09" 0 0.30 856
Sweetwater 11SW   03:30 PM 85 65 53% NE1213 19 mph 142° @ 0105 AM 88 68 93 52 30.07" 0 0 304
Tahoka 3NNE  03:30 PM 87 61 42% SE1014 17 mph 312° @ 0600 AM 88 64 95 39 30.07" 0 0.06 862
Tarzan 2WNW  03:30 PM 90 62 39% SE1518 18 mph 134° @ 1201 AM 90 67 91 39 30.05" 0 0 925
Tatum NM 2SW  03:30 PM 75 60 61% N1524 24 mph 339° @ 0330 PM 87 61 91 34 30.13" 0.02 0.07 96
Throckmorton 1SW  03:30 PM 85 70 62% E57 18 mph 122° @ 0123 PM 88 68 99 58 30.02" 0 0 180
Tulia 2ENE  03:30 PM 84 62 49% SE36 21 mph 260° @ 0140 AM 84 63 98 49 30.10" 0 0 1001
Turkey 2WSW  03:30 PM 83 67 60% SE1622 25 mph 126° @ 0325 PM 87 66 100 54 30.04" 0 0 584
Umbarger 3NNE  03:30 PM 83 60 46% S1112 19 mph 218° @ 0116 AM 83 63 96 46 30.12" 0 0.26 615
Vigo Park  03:30 PM 84 61 46% E24 17 mph 268° @ 0210 AM 87 64 97 40 30.10" 0 0 972
Wall 1E  03:30 PM 86 64 49% SE911 17 mph 163° @ 0305 PM 89 68 87 44 30.03" 0 0 626
Welch  03:30 PM 86 63 47% SE810 22 mph 343° @ 0540 AM 86 66 94 47 30.08" 0 0 891
White River Lake 6NW  03:30 PM 88 62 44% SE613 23 mph 151° @ 0315 PM 90 67 94 41 30.05" 0 0 1002
Wolfforth 6SSW  03:30 PM 87 61 43% SE1015 22 mph 286° @ 0450 AM 87 64 94 43 30.08" 0 0.03 799

West Texas Mesonet Home   Site Map/Menu  NWS Lubbock Soil Data  Daily Summary Page  24hr Precip  72hr Precip  Google Plot